Time;durP1;ratioP1;P1;durP2;ratioP2;P2;SDS_P1;SDS_P2;PMS_P1;PMS_P2;Temp;Humidity;BMP_temperature;BMP_pressure;BME280_temperature;BME280_humidity;BME280_pressure;Samples;Min_cycle;Max_cycle;Signal;HPM_P1;HPM_P2
2023/12/26 00:01:29;;;;;;;0.43;0.43;;;;;;;-141.84;100.00;114158.53;5050921;28;20595;-61
2023/12/26 00:03:57;;;;;;;1.07;0.50;;;;;;;-141.84;100.00;109632.72;5050913;28;20225;-59
2023/12/26 00:06:26;;;;;;;0.60;0.50;;;;;;;-141.84;100.00;109632.72;5050706;28;20701;-60
2023/12/26 00:08:55;;;;;;;0.60;0.60;;;;;;;-141.84;100.00;111229.50;5050782;28;20240;-61
2023/12/26 00:11:25;;;;;;;0.50;0.50;;;;;;;-141.84;100.00;109366.66;5042973;28;20285;-61
2023/12/26 00:13:53;;;;;;;0.77;0.40;;;;;;;-141.84;100.00;107238.72;5050267;28;20233;-60
2023/12/26 00:16:22;;;;;;;0.83;0.40;;;;;;;-141.84;100.00;104314.66;5050373;28;20308;-60
2023/12/26 00:18:51;;;;;;;0.40;0.37;;;;;;;-141.84;100.00;106706.94;5050618;28;20225;-60
2023/12/26 00:21:20;;;;;;;0.40;0.40;;;;;;;-141.84;100.00;104846.16;5050322;28;20312;-60
2023/12/26 00:23:48;;;;;;;0.70;0.50;;;;;;;-141.84;100.00;100861.66;5050165;28;20243;-60
2023/12/26 00:26:17;;;;;;;0.50;0.50;;;;;;;-141.84;100.00;96350.63;5050693;28;20197;-60
2023/12/26 00:28:47;;;;;;;0.77;0.40;;;;;;;-141.84;99.22;93169.38;5050010;28;20221;-59
2023/12/26 00:31:15;;;;;;;0.63;0.40;;;;;;;-141.84;98.76;91844.63;5049964;28;20304;-60
2023/12/26 00:33:44;;;;;;;0.47;0.40;;;;;;;-141.84;98.48;90785.09;5049944;28;20835;-61
2023/12/26 00:36:15;;;;;;;0.40;0.40;;;;;;;-141.84;98.77;91579.72;5050064;28;20229;-59
2023/12/26 00:38:44;;;;;;;0.57;0.50;;;;;;;-141.84;98.54;91314.81;5050547;28;20217;-60
2023/12/26 00:41:12;;;;;;;0.33;0.30;;;;;;;-141.84;99.05;91579.72;5050533;28;20259;-59
2023/12/26 00:43:41;;;;;;;0.50;0.40;;;;;;;-141.84;98.70;92374.47;5049918;28;20764;-60
2023/12/26 00:46:11;;;;;;;0.50;0.50;;;;;;;-141.84;97.71;88931.63;5050102;28;20221;-60
2023/12/26 00:48:40;;;;;;;0.37;0.30;;;;;;;-141.84;97.26;87079.03;5049902;28;20308;-60
2023/12/26 00:51:08;;;;;;;0.40;0.40;;;;;;;-141.84;99.23;91844.63;5041494;28;20225;-60
2023/12/26 00:53:37;;;;;;;0.30;0.30;;;;;;;-141.84;100.00;97676.88;5049555;28;20197;-60
2023/12/26 00:56:06;;;;;;;0.50;0.50;;;;;;;-141.84;99.34;92904.41;5050295;28;20649;-60
2023/12/26 00:58:36;;;;;;;0.77;0.40;;;;;;;-141.84;97.62;88666.94;5049275;28;20260;-60
2023/12/26 01:01:05;;;;;;;0.53;0.40;;;;;;;-141.84;96.75;85756.25;5049604;28;20785;-60
2023/12/26 01:03:35;;;;;;;1.17;0.40;;;;;;;-141.84;97.35;86549.84;5049506;28;20233;-60
2023/12/26 01:06:04;;;;;;;0.40;0.40;;;;;;;-141.84;97.33;87608.25;5041130;28;20267;-60
2023/12/26 01:08:33;;;;;;;0.30;0.30;;;;;;;-141.84;96.61;85756.25;5049175;28;20591;-60
2023/12/26 01:11:02;;;;;;;0.40;0.40;;;;;;;-141.84;94.89;79412.97;5050167;28;20193;-60
2023/12/26 01:13:34;;;;;;;0.30;0.30;;;;;;;-141.84;96.72;84962.78;5049417;28;20780;-60
2023/12/26 01:16:03;;;;;;;0.30;0.30;;;;;;;-141.84;96.38;85227.25;5049694;28;20216;-60
2023/12/26 01:18:32;;;;;;;0.60;0.50;;;;;;;-141.84;96.31;84433.91;5049281;28;20708;-60
2023/12/26 01:21:03;;;;;;;0.40;0.40;;;;;;;-141.84;96.24;84433.91;5049366;28;20259;-60
2023/12/26 01:23:32;;;;;;;0.40;0.40;;;;;;;-141.84;95.77;83112.00;5046474;28;20216;-60
2023/12/26 01:26:00;;;;;;;0.40;0.40;;;;;;;-141.84;97.12;86814.44;5049392;28;20313;-60
2023/12/26 01:28:29;;;;;;;0.40;0.40;;;;;;;-141.84;96.79;85491.75;5048967;28;20281;-60
2023/12/26 01:30:57;;;;;;;0.47;0.40;;;;;;;-141.84;94.27;78620.75;5046952;28;20303;-59
2023/12/26 01:33:26;;;;;;;0.47;0.47;;;;;;;-141.84;94.65;78620.75;5049312;28;20890;-59
2023/12/26 01:35:55;;;;;;;0.47;0.40;;;;;;;-141.84;93.19;73607.09;5044622;28;20232;-59
2023/12/26 01:38:25;;;;;;;0.40;0.40;;;;;;;-141.84;94.08;76245.09;5049872;28;20201;-60
2023/12/26 01:40:54;;;;;;;0.60;0.30;;;;;;;-141.84;92.78;73343.38;5049677;28;20229;-60
2023/12/26 01:43:22;;;;;;;0.30;0.30;;;;;;;-141.84;93.52;74925.88;5049312;28;20225;-60
2023/12/26 01:45:57;;;;;;;0.30;0.30;;;;;;;-141.84;93.74;74925.88;5049445;28;20261;-60
2023/12/26 01:48:28;;;;;;;0.37;0.30;;;;;;;-141.84;93.38;74925.88;5049487;28;20231;-61
2023/12/26 01:50:57;;;;;;;0.30;0.30;;;;;;;-141.84;91.23;65440.38;5047725;28;20256;-59
2023/12/26 01:53:28;;;;;;;0.90;0.40;;;;;;;-141.84;90.60;63072.50;5050049;28;20193;-60
2023/12/26 01:55:57;;;;;;;0.40;0.30;;;;;;;-141.84;92.51;69916.81;5050034;28;20229;-60
2023/12/26 01:58:27;;;;;;;0.87;0.40;;;;;;;-141.84;91.20;65440.38;5049132;28;20283;-60
2023/12/26 02:00:56;;;;;;;0.30;0.30;;;;;;;-141.84;92.35;70180.31;5049642;28;20252;-60
2023/12/26 02:03:26;;;;;;;2.53;0.50;;;;;;;-141.84;92.37;70180.31;5049400;28;20229;-60
2023/12/26 02:05:55;;;;;;;0.40;0.40;;;;;;;-141.84;91.25;65177.19;5049449;28;20221;-60
2023/12/26 02:08:26;;;;;;;0.43;0.43;;;;;;;-141.84;90.82;64124.72;5050166;28;20225;-60
2023/12/26 02:10:55;;;;;;;0.40;0.40;;;;;;;-141.84;92.64;69916.81;5049467;28;20228;-61
2023/12/26 02:13:24;;;;;;;0.50;0.40;;;;;;;-141.84;92.47;70180.31;5044847;28;20233;-60
2023/12/26 02:15:56;;;;;;;1.17;0.50;;;;;;;-141.84;91.43;65966.75;5053282;28;20221;-60
2023/12/26 02:18:25;;;;;;;0.50;0.50;;;;;;;-141.84;91.24;66229.97;5053136;28;20237;-60
2023/12/26 02:20:54;;;;;;;0.40;0.40;;;;;;;-141.84;91.46;66756.44;5053170;28;20300;-60
2023/12/26 02:23:26;;;;;;;1.20;0.43;;;;;;;-141.84;93.78;75453.50;5053544;28;20237;-60
2023/12/26 02:25:57;;;;;;;0.40;0.40;;;;;;;-141.84;93.83;75981.22;5052810;28;20316;-61
2023/12/26 02:28:26;;;;;;;0.47;0.47;;;;;;;-141.84;93.99;76772.88;5052624;28;20252;-58
2023/12/26 02:30:56;;;;;;;0.30;0.30;;;;;;;-141.84;93.84;75453.50;5052887;28;20573;-59
2023/12/26 02:33:25;;;;;;;0.47;0.47;;;;;;;-141.84;94.79;78884.81;5044501;28;20217;-61
2023/12/26 02:35:54;;;;;;;0.50;0.50;;;;;;;-141.84;94.53;78620.75;5047477;28;20233;-60
2023/12/26 02:38:23;;;;;;;0.63;0.50;;;;;;;-141.84;96.15;83640.72;5052442;28;20294;-60
2023/12/26 02:40:52;;;;;;;0.40;0.40;;;;;;;-141.84;95.66;82583.34;5052491;28;20600;-60
2023/12/26 02:43:23;;;;;;;0.40;0.40;;;;;;;-141.84;96.58;84962.78;5052286;28;20235;-60
2023/12/26 02:45:52;;;;;;;0.43;0.43;;;;;;;-141.84;96.96;86814.44;5051974;28;20659;-60
2023/12/26 02:48:20;;;;;;;0.50;0.30;;;;;;;-141.84;97.09;86549.84;5051686;28;20229;-60
2023/12/26 02:50:49;;;;;;;0.50;0.50;;;;;;;-141.84;98.52;90520.28;5048866;28;20201;-60
2023/12/26 02:53:18;;;;;;;0.43;0.40;;;;;;;-141.84;96.69;87079.03;5052315;28;20232;-61
2023/12/26 02:55:49;;;;;;;0.53;0.47;;;;;;;-141.84;96.08;84433.91;5051464;28;20304;-60
2023/12/26 02:58:18;;;;;;;0.60;0.50;;;;;;;-141.84;95.97;83905.09;5051332;28;20275;-60
2023/12/26 03:00:48;;;;;;;0.50;0.40;;;;;;;-141.84;96.93;86549.84;5051581;28;20229;-61
2023/12/26 03:03:17;;;;;;;1.10;0.40;;;;;;;-141.84;96.50;85491.75;5051802;28;20735;-61
2023/12/26 03:05:45;;;;;;;0.60;0.40;;;;;;;-141.84;96.24;84962.78;5051657;28;20267;-61
2023/12/26 03:08:14;;;;;;;0.40;0.40;;;;;;;-141.84;94.35;79412.97;5052497;28;20227;-60
2023/12/26 03:10:43;;;;;;;0.73;0.50;;;;;;;-141.84;94.11;77300.78;5051477;28;20291;-61
2023/12/26 03:13:11;;;;;;;0.40;0.40;;;;;;;-141.84;93.21;74398.31;5051415;28;20256;-60
2023/12/26 03:15:40;;;;;;;0.50;0.40;;;;;;;-141.84;91.78;68599.69;5051845;28;20296;-60
2023/12/26 03:18:10;;;;;;;0.40;0.40;;;;;;;-141.84;90.80;65440.38;5051718;28;20279;-59
2023/12/26 03:20:39;;;;;;;0.60;0.40;;;;;;;-141.84;91.74;68336.31;5051598;28;20189;-60
2023/12/26 03:23:07;;;;;;;0.40;0.40;;;;;;;-141.84;89.87;60968.94;5051852;28;20201;-63
2023/12/26 03:25:36;;;;;;;1.73;0.60;;;;;;;-141.84;90.80;63335.53;5049508;28;20810;-60
2023/12/26 03:28:06;;;;;;;0.40;0.40;;;;;;;-141.84;89.98;60706.06;5051382;28;20308;-60
2023/12/26 03:30:34;;;;;;;0.50;0.50;;;;;;;-141.84;89.49;58078.34;5050793;28;20275;-59
2023/12/26 03:33:03;;;;;;;0.30;0.30;;;;;;;-141.84;89.20;56765.13;5050129;28;20247;-60
2023/12/26 03:35:33;;;;;;;0.30;0.30;;;;;;;-141.84;89.43;57553.00;5049282;28;20221;-59
2023/12/26 03:38:02;;;;;;;0.30;0.30;;;;;;;-141.84;88.87;54927.34;5049264;28;20221;-60
2023/12/26 03:40:31;;;;;;;0.30;0.30;;;;;;;-141.84;87.58;48632.88;5051322;28;20308;-59
2023/12/26 03:42:59;;;;;;;0.40;0.40;;;;;;;-141.84;88.11;49943.41;5051259;28;20759;-59
2023/12/26 03:45:29;;;;;;;0.30;0.30;;;;;;;-141.84;87.90;48894.97;5051307;28;20312;-60
2023/12/26 03:47:57;;;;;;;0.47;0.47;;;;;;;-141.84;88.15;50729.94;5051595;28;20367;-59
2023/12/26 03:50:27;;;;;;;0.63;0.63;;;;;;;-141.84;87.80;48370.84;5049723;28;20194;-59
2023/12/26 03:52:57;;;;;;;0.40;0.40;;;;;;;-141.84;87.90;49419.16;5051528;28;20252;-60
2023/12/26 03:55:26;;;;;;;0.40;0.40;;;;;;;-141.84;87.94;49419.16;5045975;28;20898;-60
2023/12/26 03:57:54;;;;;;;0.53;0.53;;;;;;;-141.84;85.71;35969.91;5051345;28;20312;-60
2023/12/26 04:00:23;;;;;;;0.33;0.33;;;;;;;-141.84;85.58;34998.63;5051006;28;20225;-60
2023/12/26 04:02:52;;;;;;;0.40;0.40;;;;;;;-141.84;85.17;32182.03;5051318;28;20279;-61
2023/12/26 04:05:21;;;;;;;0.40;0.40;;;;;;;-141.84;85.01;31134.22;5051789;28;20204;-59
2023/12/26 04:07:49;;;;;;;0.57;0.40;;;;;;;-141.84;85.54;33754.25;5050866;28;20233;-60
2023/12/26 04:10:19;;;;;;;0.60;0.40;;;;;;;-141.84;83.91;27298.06;5050681;28;20769;-59
2023/12/26 04:12:47;;;;;;;0.40;0.40;;;;;;;-141.84;85.16;31007.84;5050873;28;20294;-60
2023/12/26 04:15:16;;;;;;;0.30;0.30;;;;;;;-141.84;83.48;26151.81;5050808;28;20233;-60
2023/12/26 04:17:44;;;;;;;0.40;0.40;;;;;;;-141.84;83.41;24902.13;5051112;28;20592;-59
2023/12/26 04:20:13;;;;;;;0.50;0.40;;;;;;;-141.84;83.15;24739.31;5051076;28;20653;-59
2023/12/26 04:22:42;;;;;;;0.30;0.30;;;;;;;-141.84;84.21;27627.94;5050542;28;20252;-59
2023/12/26 04:25:11;;;;;;;0.43;0.43;;;;;;;-141.84;84.33;28375.41;5050656;28;20304;-60
2023/12/26 04:27:40;;;;;;;0.93;0.40;;;;;;;-141.84;81.78;22290.03;5050595;28;20249;-60
2023/12/26 04:30:10;;;;;;;1.27;0.40;;;;;;;-141.84;80.42;20545.56;5042297;28;20222;-60
2023/12/26 04:32:39;;;;;;;0.40;0.40;;;;;;;-141.84;80.34;20362.63;5050765;28;20247;-60
2023/12/26 04:35:08;;;;;;;0.30;0.30;;;;;;;-141.84;80.44;20545.56;5049725;28;20234;-60
2023/12/26 04:37:37;;;;;;;0.30;0.30;;;;;;;-141.84;79.72;20082.13;5050467;28;20224;-60
2023/12/26 04:40:07;;;;;;;0.30;0.20;;;;;;;-141.84;79.45;19986.59;5050221;28;20268;-60
2023/12/26 04:42:35;;;;;;;0.20;0.20;;;;;;;-141.84;79.23;19791.47;5050192;28;20256;-60
2023/12/26 04:45:06;;;;;;;0.20;0.20;;;;;;;-141.84;77.51;19315.94;5050366;28;20223;-60
2023/12/26 04:47:35;;;;;;;0.40;0.20;;;;;;;-141.84;78.50;19443.97;5050386;28;20611;-59
2023/12/26 04:50:05;;;;;;;0.20;0.20;;;;;;;-141.84;78.13;19433.81;5048608;28;20228;-58
2023/12/26 04:52:33;;;;;;;0.30;0.30;;;;;;;-141.84;76.82;19196.06;5049968;28;20221;-59
2023/12/26 04:55:02;;;;;;;0.30;0.30;;;;;;;-141.84;76.93;19159.47;5050030;28;20221;-59
2023/12/26 04:57:31;;;;;;;0.40;0.30;;;;;;;-141.84;76.92;19194.03;5049845;28;20225;-59
2023/12/26 04:59:59;;;;;;;0.30;0.27;;;;;;;-141.84;76.91;19165.56;5049754;28;20249;-59
2023/12/26 05:02:29;;;;;;;0.20;0.20;;;;;;;-141.84;75.98;19068.03;5050019;28;20599;-59
2023/12/26 05:04:58;;;;;;;0.30;0.30;;;;;;;-141.84;76.60;19114.78;5050320;28;20296;-59
2023/12/26 05:07:26;;;;;;;0.40;0.23;;;;;;;-141.84;75.38;19015.19;5049964;28;20221;-58
2023/12/26 05:09:55;;;;;;;0.30;0.30;;;;;;;-141.84;76.04;19037.56;5049718;28;20303;-59
2023/12/26 05:12:24;;;;;;;0.20;0.20;;;;;;;-141.84;76.00;19053.81;5049913;28;20275;-59
2023/12/26 05:14:52;;;;;;;0.28;0.28;;;;;;;-141.84;76.14;19074.13;5049845;28;20225;-59
2023/12/26 05:17:21;;;;;;;0.20;0.20;;;;;;;-141.84;75.63;19031.47;5049888;28;20206;-60
2023/12/26 05:19:51;;;;;;;0.40;0.33;;;;;;;-141.84;75.62;19003.00;5049655;28;20641;-59
2023/12/26 05:22:19;;;;;;;0.20;0.20;;;;;;;-141.84;75.85;19025.38;5049638;28;20241;-59
2023/12/26 05:24:48;;;;;;;0.20;0.20;;;;;;;-141.84;75.42;19021.31;5049396;28;20335;-59
2023/12/26 05:27:21;;;;;;;0.40;0.20;;;;;;;-141.84;75.33;18964.41;5048431;28;20304;-59
2023/12/26 05:29:49;;;;;;;0.30;0.30;;;;;;;-141.84;75.06;18966.44;5048225;28;20221;-58
2023/12/26 05:32:18;;;;;;;0.47;0.37;;;;;;;-141.84;74.46;18929.88;5046823;28;20205;-59
2023/12/26 05:34:48;;;;;;;0.30;0.30;;;;;;;-141.84;75.16;18988.78;5045306;28;20308;-59
2023/12/26 05:37:18;;;;;;;0.60;0.60;;;;;;;-141.84;74.61;18911.56;5049328;28;20221;-58
2023/12/26 05:39:47;;;;;;;0.40;0.40;;;;;;;-141.84;74.73;18933.94;5049464;28;20242;-59
2023/12/26 05:42:16;;;;;;;0.30;0.30;;;;;;;-141.84;75.20;18944.09;5049671;28;20225;-59
2023/12/26 05:44:44;;;;;;;0.57;0.30;;;;;;;-141.84;75.59;19031.47;5046353;28;20202;-58
2023/12/26 05:47:13;;;;;;;0.50;0.30;;;;;;;-141.84;74.97;18968.47;5052244;28;20718;-60
2023/12/26 05:49:42;;;;;;;0.20;0.20;;;;;;;-141.84;75.10;18954.25;5051971;28;20311;-59
2023/12/26 05:52:11;;;;;;;0.52;0.30;;;;;;;-141.84;76.83;19126.97;5053498;28;20241;-59
2023/12/26 05:54:41;;;;;;;0.40;0.30;;;;;;;-141.84;75.15;18960.34;5053559;28;20217;-59
2023/12/26 05:57:10;;;;;;;0.50;0.30;;;;;;;-141.84;75.15;18966.44;5053142;28;20304;-59
2023/12/26 05:59:39;;;;;;;0.20;0.20;;;;;;;-141.84;74.43;18919.69;5053222;28;20610;-59
2023/12/26 06:02:07;;;;;;;0.40;0.20;;;;;;;-141.84;75.04;18940.03;5053824;28;20213;-59
2023/12/26 06:04:36;;;;;;;0.20;0.20;;;;;;;-141.84;74.59;18919.69;5053320;28;20244;-59
2023/12/26 06:07:05;;;;;;;0.20;0.20;;;;;;;-141.84;74.69;18935.97;5053256;28;20275;-59
2023/12/26 06:09:34;;;;;;;0.30;0.30;;;;;;;-141.84;74.43;18921.75;5053235;28;20225;-59
2023/12/26 06:12:04;;;;;;;0.30;0.30;;;;;;;-141.84;74.35;18899.38;5052979;28;20300;-59
2023/12/26 06:14:33;;;;;;;0.20;0.20;;;;;;;-141.84;75.55;18970.50;5053255;28;20190;-58
2023/12/26 06:17:01;;;;;;;0.20;0.20;;;;;;;-141.84;75.12;18976.59;5053828;28;20246;-60
2023/12/26 06:19:30;;;;;;;0.20;0.20;;;;;;;-141.84;74.45;18919.69;5045120;28;20256;-60
2023/12/26 06:21:59;;;;;;;0.20;0.20;;;;;;;-141.84;74.60;18893.28;5047655;28;20244;-59
2023/12/26 06:24:27;;;;;;;0.20;0.20;;;;;;;-141.84;75.16;18944.09;5052693;28;20229;-59
2023/12/26 06:26:56;;;;;;;0.20;0.20;;;;;;;-141.84;75.19;18986.75;5052908;28;20225;-59
2023/12/26 06:29:26;;;;;;;0.20;0.20;;;;;;;-141.84;75.98;19049.75;5053440;28;20211;-58
2023/12/26 06:31:55;;;;;;;0.20;0.20;;;;;;;-141.84;74.18;18915.63;5052613;28;20228;-59
2023/12/26 06:34:23;;;;;;;0.20;0.20;;;;;;;-141.84;74.26;18940.03;5052579;28;20320;-59
2023/12/26 06:36:52;;;;;;;0.23;0.20;;;;;;;-141.84;74.84;18950.19;5047074;28;20232;-59
2023/12/26 06:39:21;;;;;;;0.20;0.20;;;;;;;-141.84;74.63;18927.84;5052440;28;20773;-59
2023/12/26 06:41:49;;;;;;;0.93;0.20;;;;;;;-141.84;74.57;18952.22;5052808;28;20221;-58
2023/12/26 06:44:18;;;;;;;1.20;0.90;;;;;;;-141.84;74.46;18944.09;5053420;28;20201;-59
2023/12/26 06:46:48;;;;;;;0.40;0.40;;;;;;;-141.84;74.13;18919.69;5052748;28;20276;-59
2023/12/26 06:49:18;;;;;;;0.47;0.20;;;;;;;-141.84;73.95;18891.25;5052663;28;20225;-59
2023/12/26 06:51:47;;;;;;;0.30;0.30;;;;;;;-141.84;74.36;18940.03;5051121;28;20304;-60
2023/12/26 06:54:16;;;;;;;0.30;0.30;;;;;;;-141.84;74.92;18946.13;5052221;28;20225;-60
2023/12/26 06:56:45;;;;;;;0.20;0.20;;;;;;;-141.84;74.45;18952.22;5052097;28;20205;-60
2023/12/26 06:59:14;;;;;;;0.97;0.50;;;;;;;-141.84;74.38;18923.78;5052055;28;20205;-60
2023/12/26 07:01:48;;;;;;;0.20;0.20;;;;;;;-141.84;74.43;18940.03;5052004;28;20304;-60
2023/12/26 07:04:16;;;;;;;0.30;0.30;;;;;;;-141.84;74.46;18935.97;5051939;28;20305;-59
2023/12/26 07:06:45;;;;;;;0.30;0.30;;;;;;;-141.84;74.57;18962.38;5052077;28;20225;-60
2023/12/26 07:09:14;;;;;;;1.33;0.20;;;;;;;-141.84;74.39;18946.13;5051887;28;20225;-59
2023/12/26 07:11:42;;;;;;;0.68;0.30;;;;;;;-141.84;74.75;18948.16;5051857;28;20221;-59
2023/12/26 07:14:11;;;;;;;0.83;0.30;;;;;;;-141.84;75.12;18976.59;5052361;28;20202;-60
2023/12/26 07:16:40;;;;;;;0.30;0.30;;;;;;;-141.84;75.54;19033.50;5051973;28;20224;-60
2023/12/26 07:19:10;;;;;;;0.30;0.30;;;;;;;-141.84;74.33;18923.78;5051241;28;20268;-59
2023/12/26 07:21:38;;;;;;;0.30;0.30;;;;;;;-141.84;74.38;18899.38;5051822;28;20237;-59
2023/12/26 07:24:08;;;;;;;0.40;0.40;;;;;;;-141.84;74.54;18921.75;5050675;28;20653;-59
2023/12/26 07:26:36;;;;;;;0.30;0.30;;;;;;;-141.84;74.08;18913.59;5051441;28;20201;-61
2023/12/26 07:29:05;;;;;;;0.57;0.40;;;;;;;-141.84;74.47;18911.56;5052073;28;20240;-61
2023/12/26 07:31:33;;;;;;;0.45;0.30;;;;;;;-141.84;74.51;18952.22;5051754;28;20668;-60
2023/12/26 07:34:04;;;;;;;0.30;0.30;;;;;;;-141.84;75.02;18990.81;5051495;28;20240;-59
2023/12/26 07:36:34;;;;;;;0.30;0.30;;;;;;;-141.84;73.92;18935.97;5051980;28;20248;-59
2023/12/26 07:39:03;;;;;;;0.50;0.40;;;;;;;-141.84;74.60;18938.00;5051390;28;20312;-59
2023/12/26 07:41:33;;;;;;;1.00;0.30;;;;;;;-141.84;74.76;18962.38;5043995;28;20189;-58
2023/12/26 07:44:02;;;;;;;0.60;0.38;;;;;;;-141.84;74.90;18982.69;5052073;28;20284;-59
2023/12/26 07:46:30;;;;;;;0.50;0.43;;;;;;;-141.84;75.21;19007.06;5051846;28;20724;-59
2023/12/26 07:48:59;;;;;;;0.93;0.40;;;;;;;-141.84;75.00;19015.19;5051293;28;20224;-60
2023/12/26 07:51:28;;;;;;;0.40;0.40;;;;;;;-141.84;74.77;18962.38;5051160;28;20237;-59
2023/12/26 07:53:59;;;;;;;0.50;0.50;;;;;;;-141.84;74.32;18929.88;5051354;28;20999;-59
2023/12/26 07:56:28;;;;;;;1.23;0.50;;;;;;;-141.84;74.76;18974.56;5051997;28;20235;-59
2023/12/26 07:58:57;;;;;;;0.67;0.50;;;;;;;-141.84;74.09;18915.63;5051685;28;20266;-59
2023/12/26 08:01:26;;;;;;;1.17;0.40;;;;;;;-141.84;74.35;18956.28;5051691;28;20227;-59
2023/12/26 08:03:55;;;;;;;0.50;0.40;;;;;;;-141.84;75.56;19055.84;5051311;28;20800;-59
2023/12/26 08:06:24;;;;;;;0.40;0.40;;;;;;;-141.84;75.08;18998.94;5051368;28;20303;-59
2023/12/26 08:08:53;;;;;;;0.40;0.40;;;;;;;-141.84;74.33;18950.19;5042147;28;20232;-62
2023/12/26 08:11:24;;;;;;;0.73;0.47;;;;;;;-141.84;75.24;19009.09;5051755;28;20227;-59
2023/12/26 08:13:53;;;;;;;0.60;0.60;;;;;;;-141.84;74.83;18996.91;5050498;28;20304;-59
2023/12/26 08:16:21;;;;;;;0.73;0.50;;;;;;;-141.84;74.64;18982.69;5051079;28;20232;-60
2023/12/26 08:18:50;;;;;;;2.30;0.50;;;;;;;-141.84;74.76;18952.22;5050865;28;20217;-60
2023/12/26 08:21:19;;;;;;;0.60;0.43;;;;;;;-141.84;74.93;19013.16;5050871;28;20222;-60
2023/12/26 08:23:48;;;;;;;1.00;0.60;;;;;;;-141.84;74.16;18946.13;5050693;28;20229;-59
2023/12/26 08:26:16;;;;;;;0.50;0.50;;;;;;;-141.84;74.51;18968.47;5051568;28;20208;-59
2023/12/26 08:28:47;;;;;;;0.73;0.60;;;;;;;-141.84;74.32;18931.91;5050700;28;20220;-59
2023/12/26 08:31:16;;;;;;;0.80;0.50;;;;;;;-141.84;74.33;18940.03;5050696;28;20314;-60
2023/12/26 08:33:45;;;;;;;0.77;0.60;;;;;;;-141.84;74.27;18960.34;5050645;28;20229;-59
2023/12/26 08:36:13;;;;;;;0.50;0.50;;;;;;;-141.84;74.82;18996.91;5042494;28;20232;-60
2023/12/26 08:38:43;;;;;;;0.60;0.60;;;;;;;-141.84;74.84;18998.94;5050710;28;20204;-59
2023/12/26 08:41:13;;;;;;;1.97;0.70;;;;;;;-141.84;75.89;19078.19;5051049;28;20190;-60
2023/12/26 08:43:42;;;;;;;1.27;0.70;;;;;;;-141.84;75.43;19049.75;5050466;28;20347;-59
2023/12/26 08:46:12;;;;;;;0.93;0.50;;;;;;;-141.84;75.74;19061.94;5050507;28;20249;-59
2023/12/26 08:48:41;;;;;;;1.60;0.60;;;;;;;-141.84;77.67;19313.91;5050518;28;20229;-59
2023/12/26 08:51:10;;;;;;;1.67;0.60;;;;;;;-141.84;77.49;19297.66;5049707;28;20221;-59
2023/12/26 08:53:39;;;;;;;0.87;0.60;;;;;;;-141.84;78.03;19417.56;5050790;28;20201;-59
2023/12/26 08:56:08;;;;;;;1.10;0.50;;;;;;;-141.84;78.77;19543.53;5051059;28;20284;-59
2023/12/26 08:58:37;;;;;;;0.83;0.70;;;;;;;-141.84;80.64;20297.56;5050454;28;20800;-59
2023/12/26 09:01:06;;;;;;;1.07;0.60;;;;;;;-141.84;83.39;23439.22;5050181;28;20217;-57
2023/12/26 09:03:37;;;;;;;0.80;0.80;;;;;;;-141.84;84.02;25661.25;5042614;28;20221;-58
2023/12/26 09:06:10;;;;;;;0.90;0.80;;;;;;;-141.84;84.86;28273.56;5050639;28;20895;-55
2023/12/26 09:08:39;;;;;;;1.43;0.93;;;;;;;-141.84;84.91;28988.53;5050312;28;20531;-56
2023/12/26 09:11:07;;;;;;;1.57;0.97;;;;;;;-141.84;85.71;31582.66;5050584;28;20228;-57
2023/12/26 09:13:36;;;;;;;1.00;0.90;;;;;;;-141.84;86.30;36921.03;5050039;28;20241;-57
2023/12/26 09:16:05;;;;;;;0.70;0.70;;;;;;;-141.84;86.72;39054.75;5049854;28;20312;-58
2023/12/26 09:18:35;;;;;;;1.30;0.70;;;;;;;-141.84;86.32;37427.31;5049944;28;20307;-56
2023/12/26 09:21:04;;;;;;;2.30;0.60;;;;;;;-141.84;82.58;23427.00;5048875;28;20264;-57
2023/12/26 09:23:33;;;;;;;1.87;0.70;;;;;;;-141.84;81.45;21417.69;5041479;28;20201;-55
2023/12/26 09:26:04;;;;;;;0.80;0.60;;;;;;;-141.84;80.23;20490.66;5049735;28;20280;-56
2023/12/26 09:28:33;;;;;;;1.03;0.50;;;;;;;-141.84;79.76;20008.94;5049370;28;20348;-54
2023/12/26 09:31:02;;;;;;;0.80;0.70;;;;;;;-141.84;76.96;19285.47;5049843;28;20275;-56
2023/12/26 09:33:31;;;;;;;1.15;0.60;;;;;;;-141.84;76.05;19159.47;5049637;28;20308;-55
2023/12/26 09:36:01;;;;;;;0.60;0.60;;;;;;;-141.84;75.89;19092.41;5049670;28;20292;-56
2023/12/26 09:38:30;;;;;;;0.60;0.60;;;;;;;-141.84;75.92;19076.16;5044285;28;20281;-57
2023/12/26 09:40:59;;;;;;;1.00;0.90;;;;;;;-141.84;77.36;19236.69;5049870;28;20308;-57
2023/12/26 09:43:28;;;;;;;0.93;0.70;;;;;;;-141.84;74.19;18956.28;5049431;28;20311;-56
2023/12/26 09:45:57;;;;;;;1.37;0.50;;;;;;;-141.84;73.41;18925.81;5049699;28;20223;-56
2023/12/26 09:48:26;;;;;;;1.00;0.85;;;;;;;-141.84;73.01;18868.91;5043221;28;20225;-56
2023/12/26 09:50:58;;;;;;;1.80;0.60;;;;;;;-141.84;73.90;18899.38;5040372;28;20237;-56
2023/12/26 09:53:31;;;;;;;1.80;0.83;;;;;;;-141.84;74.24;18946.13;5045890;28;20252;-58
2023/12/26 09:56:01;;;;;;;0.70;0.70;;;;;;;-141.84;75.12;18980.66;5048697;28;20217;-55
2023/12/26 09:58:31;;;;;;;0.80;0.70;;;;;;;-141.84;72.84;18842.50;5055940;28;20240;-57
2023/12/26 10:01:02;;;;;;;0.87;0.70;;;;;;;-141.84;72.08;18803.88;5049678;28;20320;-50
2023/12/26 10:03:33;;;;;;;0.70;0.70;;;;;;;-141.84;71.20;18789.66;5047832;28;20249;-55
2023/12/26 10:06:03;;;;;;;1.57;0.90;;;;;;;-141.84;71.56;18797.78;5050145;28;20229;-56
2023/12/26 10:08:33;;;;;;;1.80;0.77;;;;;;;-141.84;70.82;18753.09;5049750;28;20204;-58
2023/12/26 10:11:02;;;;;;;1.63;0.70;;;;;;;-141.84;71.45;18799.81;5050620;28;20570;-56
2023/12/26 10:13:44;;;;;;;1.00;0.80;;;;;;;-141.84;70.20;18773.41;5049503;28;20256;-57
2023/12/26 10:16:13;;;;;;;1.97;0.90;;;;;;;-141.84;67.42;18722.63;5040835;28;20644;-56
2023/12/26 10:18:41;;;;;;;1.40;0.80;;;;;;;-141.84;67.99;18728.72;5045669;28;20221;-56
2023/12/26 10:21:10;;;;;;;1.07;0.80;;;;;;;-141.84;67.07;18718.56;5050118;28;20255;-57
2023/12/26 10:23:40;;;;;;;0.75;0.75;;;;;;;-141.84;65.17;18718.56;5049449;28;20201;-62
2023/12/26 10:26:09;;;;;;;1.00;0.83;;;;;;;-141.84;65.67;18708.41;5049746;28;20225;-57
2023/12/26 10:28:39;;;;;;;2.30;1.10;;;;;;;-141.84;65.11;18720.59;5041133;28;20226;-55
2023/12/26 10:31:11;;;;;;;1.03;0.90;;;;;;;-141.84;63.31;18736.84;5049666;28;20217;-56
2023/12/26 10:33:41;;;;;;;1.83;0.97;;;;;;;-141.84;62.52;18696.19;5050969;28;20237;-57
2023/12/26 10:36:11;;;;;;;1.10;0.80;;;;;;;-141.84;63.23;18740.91;5053260;28;20213;-57
2023/12/26 10:38:42;;;;;;;1.67;0.80;;;;;;;-141.84;62.14;18734.81;5053226;28;20212;-54
2023/12/26 10:41:18;;;;;;;1.40;0.80;;;;;;;-141.84;63.11;18740.91;5053632;28;20328;-55
2023/12/26 10:43:49;;;;;;;2.72;0.80;;;;;;;-141.84;62.45;18728.72;5052937;28;20219;-55
2023/12/26 10:46:19;;;;;;;1.40;0.90;;;;;;;-141.84;63.66;18757.16;5053044;28;20253;-57
2023/12/26 10:48:52;;;;;;;1.55;0.77;;;;;;;-141.84;64.11;18694.16;5052600;28;20308;-55
2023/12/26 10:51:25;;;;;;;1.65;0.90;;;;;;;-141.84;64.79;18706.38;5042973;28;20229;-57
2023/12/26 10:53:58;;;;;;;1.33;0.77;;;;;;;-141.84;65.08;18671.81;5051319;28;20240;-57
2023/12/26 10:56:29;;;;;;;2.13;0.80;;;;;;;-141.84;65.81;18708.41;5050919;28;20216;-56
2023/12/26 10:58:58;;;;;;;1.33;0.70;;;;;;;-141.84;66.05;18704.31;5053259;28;20288;-58
2023/12/26 13:52:06;;;;;;;3.13;1.30;;;;;;;-141.84;55.45;18742.94;5048774;28;20225;-56
2023/12/26 13:55:12;;;;;;;3.83;1.40;;;;;;;-141.84;55.25;18744.97;5056487;28;20949;-56
2023/12/26 13:58:18;;;;;;;3.40;1.00;;;;;;;-141.84;55.40;18730.75;5046320;28;20287;-55
2023/12/26 14:01:23;;;;;;;1.73;1.40;;;;;;;-141.84;55.78;18686.03;5048384;28;20263;-55
2023/12/26 14:04:29;;;;;;;1.90;1.27;;;;;;;-141.84;55.50;18714.50;5047528;28;20220;-56
2023/12/26 14:07:35;;;;;;;5.40;1.57;;;;;;;-141.84;55.54;18671.81;5044965;28;20217;-56
2023/12/26 14:10:41;;;;;;;3.13;1.10;;;;;;;-141.84;56.13;18688.06;5046194;28;20209;-57
2023/12/26 14:13:47;;;;;;;3.77;1.20;;;;;;;-141.84;55.20;18692.13;5048374;28;20296;-58
2023/12/26 14:16:52;;;;;;;2.03;1.20;;;;;;;-141.84;54.94;18692.13;5047944;28;20231;-59
2023/12/26 14:19:58;;;;;;;2.60;1.33;;;;;;;-141.84;55.12;18688.06;5047784;28;20817;-57
2023/12/26 14:23:04;;;;;;;1.97;1.27;;;;;;;-141.84;54.81;18734.81;5053549;28;20692;-57